createdAt,value
2022-12-25T00:00:20.973Z,223
2022-12-25T00:00:50.006Z,230
2022-12-25T00:01:21.104Z,231
2022-12-25T00:01:53.813Z,230
2022-12-25T00:02:25.068Z,231
2022-12-25T00:02:57.944Z,231
2022-12-25T00:03:29.163Z,231
2022-12-25T00:04:01.826Z,231
2022-12-25T00:04:32.991Z,231
2022-12-25T00:05:05.932Z,227
2022-12-25T00:05:36.982Z,230
2022-12-25T00:06:09.796Z,229
2022-12-25T00:06:40.843Z,226
2022-12-25T00:07:13.752Z,229
2022-12-25T00:07:44.891Z,230
2022-12-25T00:08:17.583Z,230
2022-12-25T00:08:48.722Z,230
2022-12-25T00:09:21.691Z,228
2022-12-25T00:09:52.831Z,228
2022-12-25T00:10:25.577Z,226
2022-12-25T00:10:56.689Z,220
2022-12-25T00:11:29.517Z,229
2022-12-25T00:12:00.698Z,227
2022-12-25T00:12:33.431Z,223
2022-12-25T00:13:04.565Z,225
2022-12-25T00:13:37.501Z,230
2022-12-25T00:14:08.602Z,225
2022-12-25T00:14:41.221Z,230
2022-12-25T00:15:12.697Z,229
2022-12-25T00:15:45.434Z,232
2022-12-25T00:16:16.396Z,231
2022-12-25T00:16:49.179Z,222
2022-12-25T00:17:20.365Z,227
2022-12-25T00:17:53.329Z,232
2022-12-25T00:18:24.202Z,229
2022-12-25T00:18:57.272Z,229
2022-12-25T00:19:28.304Z,219
2022-12-25T00:20:01.341Z,228
2022-12-25T00:20:32.140Z,231
2022-12-25T00:21:05.139Z,228
2022-12-25T00:21:36.229Z,219
2022-12-25T00:22:09.012Z,221
2022-12-25T00:22:40.065Z,220
2022-12-25T00:23:12.960Z,229
2022-12-25T00:23:44.144Z,222
2022-12-25T00:24:17.064Z,224
2022-12-25T00:24:48.029Z,222
2022-12-25T00:25:20.814Z,217
2022-12-25T00:25:52.149Z,214
2022-12-25T00:26:24.998Z,229
2022-12-25T00:26:56.323Z,225
2022-12-25T00:27:28.831Z,227
2022-12-25T00:27:59.961Z,219
2022-12-25T00:28:33.103Z,221
2022-12-25T00:29:03.842Z,224
2022-12-25T00:29:36.960Z,225
2022-12-25T00:30:08.208Z,224
2022-12-25T00:30:41.131Z,224
2022-12-25T00:31:11.837Z,225
2022-12-25T00:31:44.968Z,221
2022-12-25T00:32:15.951Z,220
2022-12-25T00:32:48.926Z,227
2022-12-25T00:33:19.640Z,223
2022-12-25T00:33:52.708Z,221
2022-12-25T00:34:23.714Z,203
2022-12-25T00:34:56.628Z,225
2022-12-25T00:35:27.577Z,231
2022-12-25T00:36:00.518Z,226
2022-12-25T00:36:34.911Z,231
2022-12-25T00:37:04.699Z,228
2022-12-25T00:37:36.028Z,225
2022-12-25T00:38:08.392Z,228
2022-12-25T00:38:39.564Z,224
2022-12-25T00:39:12.474Z,231
2022-12-25T00:39:43.360Z,224
2022-12-25T00:40:16.327Z,217
2022-12-25T00:40:47.410Z,226
2022-12-25T00:41:20.208Z,221
2022-12-25T00:41:51.286Z,231
2022-12-25T00:42:24.249Z,222
2022-12-25T00:42:55.398Z,220
2022-12-25T00:43:28.419Z,226
2022-12-25T00:43:59.170Z,230
2022-12-25T00:44:32.119Z,230
2022-12-25T00:45:03.469Z,230
2022-12-25T00:45:36.654Z,230
2022-12-25T00:46:07.210Z,230
2022-12-25T00:46:40.101Z,230
2022-12-25T00:47:11.254Z,230
2022-12-25T00:47:43.914Z,231
2022-12-25T00:48:15.046Z,231
2022-12-25T00:48:48.083Z,231
2022-12-25T00:49:19.141Z,232
2022-12-25T00:49:51.835Z,232
2022-12-25T00:50:22.972Z,232
2022-12-25T00:50:55.948Z,232
2022-12-25T00:51:26.970Z,232
2022-12-25T00:51:59.644Z,232
2022-12-25T00:52:30.843Z,232
2022-12-25T00:53:03.896Z,232
2022-12-25T00:53:34.990Z,232
2022-12-25T00:54:07.795Z,232
2022-12-25T00:54:38.816Z,232
2022-12-25T00:55:11.754Z,232
2022-12-25T00:55:42.867Z,232
2022-12-25T00:56:15.696Z,232
2022-12-25T00:56:46.735Z,232
2022-12-25T00:57:19.662Z,232
2022-12-25T00:57:50.764Z,232
2022-12-25T00:58:23.508Z,228
2022-12-25T00:58:54.623Z,231
2022-12-25T00:59:27.553Z,226
2022-12-25T00:59:58.679Z,224
2022-12-25T01:00:31.697Z,223
2022-12-25T01:01:02.765Z,224
2022-12-25T01:01:35.440Z,225
2022-12-25T01:02:06.702Z,224
2022-12-25T01:02:39.411Z,219
2022-12-25T01:03:10.831Z,227
2022-12-25T01:03:43.551Z,226
2022-12-25T01:04:14.513Z,224
2022-12-25T01:04:47.240Z,226
2022-12-25T01:05:18.320Z,224
2022-12-25T01:05:51.550Z,228
2022-12-25T01:06:22.227Z,222
2022-12-25T01:06:55.405Z,228
2022-12-25T01:07:26.358Z,231
2022-12-25T01:07:59.193Z,231
2022-12-25T01:08:30.355Z,232
2022-12-25T01:09:03.220Z,232
2022-12-25T01:09:34.211Z,232
2022-12-25T01:10:07.107Z,232
2022-12-25T01:10:38.263Z,232
2022-12-25T01:11:11.002Z,232
2022-12-25T01:11:42.158Z,232
2022-12-25T01:12:15.091Z,232
2022-12-25T01:12:46.025Z,232
2022-12-25T01:13:18.891Z,232
2022-12-25T01:13:50.040Z,232
2022-12-25T01:14:22.983Z,232
2022-12-25T01:14:53.862Z,232
2022-12-25T01:15:26.888Z,232
2022-12-25T01:15:58.017Z,232
2022-12-25T01:16:30.793Z,232
2022-12-25T01:17:01.896Z,232
2022-12-25T01:17:35.348Z,234
2022-12-25T01:18:07.889Z,234
2022-12-25T01:18:38.632Z,235
2022-12-25T01:19:10.269Z,238
2022-12-25T01:19:42.695Z,240
2022-12-25T01:20:13.880Z,250
2022-12-25T01:20:46.391Z,245
2022-12-25T01:21:17.681Z,244
2022-12-25T01:21:50.497Z,236
2022-12-25T01:22:21.741Z,240
2022-12-25T01:22:54.415Z,236
2022-12-25T01:23:25.606Z,237
2022-12-25T01:23:58.585Z,238
2022-12-25T01:24:29.624Z,246
2022-12-25T01:25:02.436Z,239
2022-12-25T01:25:33.520Z,240
2022-12-25T01:26:06.476Z,238
2022-12-25T01:26:37.513Z,239
2022-12-25T01:27:10.313Z,238
2022-12-25T01:27:41.462Z,236
2022-12-25T01:28:14.354Z,239
2022-12-25T01:28:45.538Z,237
2022-12-25T01:29:18.206Z,237
2022-12-25T01:29:49.320Z,242
2022-12-25T01:30:22.453Z,237
2022-12-25T01:30:53.454Z,238
2022-12-25T01:31:26.093Z,240
2022-12-25T01:31:57.347Z,238
2022-12-25T01:32:30.217Z,239
2022-12-25T01:33:01.355Z,240
2022-12-25T01:33:34.105Z,247
2022-12-25T01:34:05.207Z,240
2022-12-25T01:34:38.138Z,239
2022-12-25T01:35:09.214Z,239
2022-12-25T01:35:41.986Z,244
2022-12-25T01:36:13.088Z,239
2022-12-25T01:36:46.181Z,240
2022-12-25T01:37:16.951Z,241
2022-12-25T01:37:49.771Z,238
2022-12-25T01:38:21.032Z,238
2022-12-25T01:38:54.067Z,240
2022-12-25T01:39:25.989Z,239
2022-12-25T01:39:57.752Z,238
2022-12-25T01:40:28.933Z,239
2022-12-25T01:41:01.893Z,239
2022-12-25T01:41:32.928Z,239
2022-12-25T01:42:05.733Z,239
2022-12-25T01:42:36.913Z,242
2022-12-25T01:43:12.681Z,239
2022-12-25T01:43:40.706Z,240
2022-12-25T01:44:13.583Z,241
2022-12-25T01:44:44.770Z,240
2022-12-25T01:45:17.797Z,239
2022-12-25T01:45:48.654Z,238
2022-12-25T01:46:21.729Z,238
2022-12-25T01:46:52.658Z,237
2022-12-25T01:47:25.626Z,238
2022-12-25T01:47:56.496Z,237
2022-12-25T01:48:29.572Z,237
2022-12-25T01:49:00.601Z,237
2022-12-25T01:49:33.546Z,237
2022-12-25T01:50:04.433Z,237
2022-12-25T01:50:37.406Z,237
2022-12-25T01:51:08.506Z,242
2022-12-25T01:51:42.434Z,238
2022-12-25T01:52:12.356Z,238
2022-12-25T01:52:45.317Z,241
2022-12-25T01:53:16.399Z,244
2022-12-25T01:53:49.305Z,238
2022-12-25T01:54:20.273Z,238
2022-12-25T01:54:53.180Z,240
2022-12-25T01:55:24.329Z,240
2022-12-25T01:55:57.257Z,238
2022-12-25T01:56:28.178Z,238
2022-12-25T01:57:01.287Z,238
2022-12-25T01:57:32.253Z,240
2022-12-25T01:58:05.244Z,240
2022-12-25T01:58:36.097Z,239
2022-12-25T01:59:08.918Z,239
2022-12-25T01:59:40.120Z,237
2022-12-25T02:00:13.362Z,236
2022-12-25T02:00:44.053Z,242
2022-12-25T02:01:17.088Z,238
2022-12-25T02:01:48.245Z,237
2022-12-25T02:02:21.160Z,237
2022-12-25T02:02:52.166Z,237
2022-12-25T02:03:25.047Z,237
2022-12-25T02:03:55.984Z,246
2022-12-25T02:04:28.938Z,241
2022-12-25T02:04:59.859Z,240
2022-12-25T02:05:32.719Z,239
2022-12-25T02:06:03.897Z,240
2022-12-25T02:06:36.621Z,242
2022-12-25T02:07:07.688Z,240
2022-12-25T02:07:40.666Z,239
2022-12-25T02:08:11.784Z,238
2022-12-25T02:08:44.529Z,238
2022-12-25T02:09:15.609Z,238
2022-12-25T02:09:48.566Z,238
2022-12-25T02:10:19.717Z,236
2022-12-25T02:10:52.376Z,235
2022-12-25T02:11:23.556Z,234
2022-12-25T02:11:56.429Z,231
2022-12-25T02:12:27.616Z,231
2022-12-25T02:13:00.378Z,233
2022-12-25T02:13:31.484Z,233
2022-12-25T02:14:04.410Z,233
2022-12-25T02:14:35.548Z,233
2022-12-25T02:15:08.663Z,233
2022-12-25T02:15:39.391Z,233
2022-12-25T02:16:12.408Z,233
2022-12-25T02:16:57.230Z,233
2022-12-25T02:17:16.190Z,233
2022-12-25T02:17:47.308Z,235
2022-12-25T02:18:20.247Z,234
2022-12-25T02:18:51.404Z,233
2022-12-25T02:19:23.943Z,233
2022-12-25T02:19:55.257Z,234
2022-12-25T02:20:28.178Z,234
2022-12-25T02:20:59.430Z,234
2022-12-25T02:21:32.051Z,233
2022-12-25T02:22:03.150Z,233
2022-12-25T02:22:36.136Z,233
2022-12-25T02:23:07.136Z,232
2022-12-25T02:23:39.887Z,233
2022-12-25T02:24:11.048Z,232
2022-12-25T02:24:51.724Z,232
2022-12-25T02:25:15.131Z,232
2022-12-25T02:25:47.030Z,232
2022-12-25T02:26:18.974Z,233
2022-12-25T02:26:51.133Z,233
2022-12-25T02:27:23.046Z,233
2022-12-25T02:27:54.924Z,232
2022-12-25T02:28:26.855Z,233
2022-12-25T02:28:58.914Z,232
2022-12-25T02:29:30.954Z,233
2022-12-25T02:30:02.879Z,233
2022-12-25T02:30:34.793Z,233
2022-12-25T02:31:06.831Z,233
2022-12-25T02:31:38.960Z,232
2022-12-25T02:32:10.778Z,228
2022-12-25T02:32:42.711Z,230
2022-12-25T02:33:14.786Z,232
2022-12-25T02:33:46.763Z,230
2022-12-25T02:34:18.612Z,230
2022-12-25T02:34:50.631Z,232
2022-12-25T02:35:22.623Z,233
2022-12-25T02:35:54.730Z,233
2022-12-25T02:36:26.516Z,233
2022-12-25T02:36:58.579Z,231
2022-12-25T02:37:30.591Z,230
2022-12-25T02:38:02.363Z,230
2022-12-25T02:38:34.436Z,231
2022-12-25T02:39:06.483Z,231
2022-12-25T02:39:39.262Z,232
2022-12-25T02:40:10.492Z,232
2022-12-25T02:40:42.315Z,230
2022-12-25T02:41:14.371Z,231
2022-12-25T02:41:46.373Z,230
2022-12-25T02:42:18.219Z,230
2022-12-25T02:42:50.203Z,231
2022-12-25T02:43:22.333Z,232
2022-12-25T02:43:54.250Z,232
2022-12-25T02:44:26.179Z,232
2022-12-25T02:44:58.176Z,232
2022-12-25T02:45:30.372Z,232
2022-12-25T02:46:02.242Z,232
2022-12-25T02:46:34.259Z,231
2022-12-25T02:47:06.074Z,232
2022-12-25T02:47:38.103Z,229
2022-12-25T02:48:10.387Z,233
2022-12-25T02:48:41.959Z,232
2022-12-25T02:49:13.994Z,232
2022-12-25T02:49:46.080Z,233
2022-12-25T02:50:18.035Z,233
2022-12-25T02:50:49.890Z,233
2022-12-25T02:51:21.883Z,233
2022-12-25T02:51:53.937Z,233
2022-12-25T02:52:26.040Z,234
2022-12-25T02:52:57.808Z,238
2022-12-25T02:53:29.857Z,237
2022-12-25T02:54:01.800Z,236
2022-12-25T02:54:34.217Z,235
2022-12-25T02:55:05.710Z,235
2022-12-25T02:55:37.727Z,235
2022-12-25T02:56:09.710Z,235
2022-12-25T02:56:41.752Z,234
2022-12-25T02:57:13.623Z,234
2022-12-25T02:57:45.635Z,233
2022-12-25T02:58:18.675Z,231
2022-12-25T02:58:49.696Z,228
2022-12-25T02:59:21.533Z,227
2022-12-25T02:59:53.569Z,232
2022-12-25T03:00:25.822Z,233
2022-12-25T03:00:58.170Z,233
2022-12-25T03:01:29.574Z,233
2022-12-25T03:02:01.551Z,233
2022-12-25T03:02:33.588Z,233
2022-12-25T03:03:05.587Z,233
2022-12-25T03:03:38.427Z,233
2022-12-25T03:04:09.357Z,233
2022-12-25T03:04:42.303Z,233
2022-12-25T03:05:13.439Z,233
2022-12-25T03:05:46.133Z,233
2022-12-25T03:06:17.295Z,233
2022-12-25T03:06:50.280Z,233
2022-12-25T03:07:21.310Z,233
2022-12-25T03:07:54.048Z,233
2022-12-25T03:08:25.223Z,233
2022-12-25T03:08:58.257Z,233
2022-12-25T03:09:29.269Z,233
2022-12-25T03:10:02.128Z,232
2022-12-25T03:10:33.127Z,232
2022-12-25T03:11:06.103Z,232
2022-12-25T03:11:36.970Z,233
2022-12-25T03:12:09.904Z,233
2022-12-25T03:12:41.043Z,233
2022-12-25T03:13:19.024Z,233
2022-12-25T03:13:45.071Z,233
2022-12-25T03:14:16.825Z,233
2022-12-25T03:14:48.900Z,233
2022-12-25T03:15:21.123Z,233
2022-12-25T03:15:52.859Z,233
2022-12-25T03:16:24.905Z,234
2022-12-25T03:16:57.182Z,236
2022-12-25T03:17:28.944Z,236
2022-12-25T03:18:00.718Z,236
2022-12-25T03:18:37.970Z,236
2022-12-25T03:19:04.883Z,236
2022-12-25T03:19:36.799Z,236
2022-12-25T03:20:09.531Z,236
2022-12-25T03:20:40.653Z,236
2022-12-25T03:21:13.524Z,238
2022-12-25T03:21:44.747Z,239
2022-12-25T03:22:17.562Z,239
2022-12-25T03:22:48.631Z,239
2022-12-25T03:23:21.531Z,240
2022-12-25T03:23:52.658Z,237
2022-12-25T03:24:25.292Z,239
2022-12-25T03:24:56.564Z,238
2022-12-25T03:25:29.425Z,240
2022-12-25T03:26:00.540Z,238
2022-12-25T03:26:33.224Z,241
2022-12-25T03:27:04.450Z,238
2022-12-25T03:27:37.362Z,241
2022-12-25T03:28:08.282Z,238
2022-12-25T03:28:41.317Z,241
2022-12-25T03:29:12.350Z,239
2022-12-25T03:29:45.314Z,240
2022-12-25T03:30:16.557Z,240
2022-12-25T03:30:49.184Z,239
2022-12-25T03:31:20.357Z,238
2022-12-25T03:31:53.210Z,243
2022-12-25T03:32:24.158Z,248
2022-12-25T03:32:57.047Z,242
2022-12-25T03:33:44.030Z,243
2022-12-25T03:34:01.061Z,238
2022-12-25T03:34:32.084Z,245
2022-12-25T03:35:04.977Z,239
2022-12-25T03:35:36.150Z,240
2022-12-25T03:36:09.147Z,239
2022-12-25T03:36:39.957Z,239
2022-12-25T03:37:12.824Z,240
2022-12-25T03:37:44.040Z,240
2022-12-25T03:38:16.926Z,243
2022-12-25T03:38:47.880Z,242
2022-12-25T03:39:20.719Z,242
2022-12-25T03:39:51.891Z,240
2022-12-25T03:40:24.898Z,241
2022-12-25T03:40:55.874Z,243
2022-12-25T03:41:28.608Z,242
2022-12-25T03:41:59.857Z,240
2022-12-25T03:42:32.815Z,242
2022-12-25T03:43:03.709Z,239
2022-12-25T03:43:36.650Z,242
2022-12-25T03:44:07.767Z,240
2022-12-25T03:44:40.688Z,239
2022-12-25T03:45:11.780Z,239
2022-12-25T03:45:44.544Z,238
2022-12-25T03:46:15.753Z,237
2022-12-25T03:46:48.321Z,237
2022-12-25T03:47:19.572Z,237
2022-12-25T03:47:52.352Z,237
2022-12-25T03:48:23.607Z,237
2022-12-25T03:48:56.348Z,238
2022-12-25T03:49:27.538Z,238
2022-12-25T03:50:00.417Z,237
2022-12-25T03:50:31.568Z,237
2022-12-25T03:51:04.240Z,237
2022-12-25T03:51:35.710Z,237
2022-12-25T03:52:08.327Z,237
2022-12-25T03:52:39.433Z,237
2022-12-25T03:53:12.118Z,237
2022-12-25T03:53:43.222Z,237
2022-12-25T03:54:16.170Z,237
2022-12-25T03:54:47.338Z,237
2022-12-25T03:55:20.040Z,237
2022-12-25T03:55:51.219Z,237
2022-12-25T03:56:24.123Z,237
2022-12-25T03:56:55.331Z,237
2022-12-25T03:57:27.866Z,238
2022-12-25T03:57:59.114Z,237
2022-12-25T03:58:31.989Z,237
2022-12-25T03:59:03.179Z,238
2022-12-25T03:59:35.876Z,238
2022-12-25T04:00:15.858Z,239
2022-12-25T04:00:39.907Z,237
2022-12-25T04:01:11.119Z,239
2022-12-25T04:01:43.893Z,238
2022-12-25T04:02:14.992Z,241
2022-12-25T04:02:47.877Z,237
2022-12-25T04:03:19.105Z,237
2022-12-25T04:03:51.907Z,237
2022-12-25T04:04:22.858Z,238
2022-12-25T04:04:55.756Z,238
2022-12-25T04:05:26.994Z,238
2022-12-25T04:05:59.725Z,238
2022-12-25T04:06:30.759Z,238
2022-12-25T04:07:03.724Z,238
2022-12-25T04:07:34.865Z,238
2022-12-25T04:08:07.546Z,237
2022-12-25T04:08:38.703Z,237
2022-12-25T04:09:11.597Z,237
2022-12-25T04:09:42.728Z,237
2022-12-25T04:10:15.408Z,237
2022-12-25T04:10:46.598Z,235
2022-12-25T04:11:19.527Z,234
2022-12-25T04:11:50.604Z,232
2022-12-25T04:12:23.380Z,232
2022-12-25T04:12:54.576Z,232
2022-12-25T04:13:27.482Z,232
2022-12-25T04:13:58.579Z,232
2022-12-25T04:14:31.253Z,232
2022-12-25T04:15:02.592Z,232
2022-12-25T04:15:35.432Z,232
2022-12-25T04:16:06.435Z,232
2022-12-25T04:16:39.395Z,232
2022-12-25T04:17:10.354Z,232
2022-12-25T04:17:43.212Z,232
2022-12-25T04:18:19.261Z,232
2022-12-25T04:18:47.152Z,232
2022-12-25T04:19:18.239Z,229
2022-12-25T04:19:51.235Z,234
2022-12-25T04:20:22.152Z,234
2022-12-25T04:20:55.069Z,233
2022-12-25T04:21:26.248Z,234
2022-12-25T04:21:58.804Z,234
2022-12-25T04:22:30.057Z,233
2022-12-25T04:23:03.024Z,233
2022-12-25T04:23:34.512Z,233
2022-12-25T04:24:07.006Z,233
2022-12-25T04:24:37.923Z,231
2022-12-25T04:25:10.891Z,231
2022-12-25T04:25:42.006Z,231
2022-12-25T04:26:14.790Z,231
2022-12-25T04:26:45.933Z,233
2022-12-25T04:27:18.841Z,233
2022-12-25T04:27:49.958Z,232
2022-12-25T04:28:23.033Z,228
2022-12-25T04:28:53.849Z,230
2022-12-25T04:29:26.669Z,232
2022-12-25T04:29:58.144Z,231
2022-12-25T04:30:30.745Z,231
2022-12-25T04:31:01.778Z,230
2022-12-25T04:31:34.841Z,231
2022-12-25T04:32:05.792Z,232
2022-12-25T04:32:38.498Z,232
2022-12-25T04:33:09.623Z,228
2022-12-25T04:33:42.568Z,229
2022-12-25T04:34:14.258Z,231
2022-12-25T04:34:46.331Z,231
2022-12-25T04:35:17.538Z,224
2022-12-25T04:35:50.481Z,229
2022-12-25T04:36:21.614Z,230
2022-12-25T04:36:54.357Z,231
2022-12-25T04:37:41.580Z,231
2022-12-25T04:38:13.403Z,229
2022-12-25T04:38:57.482Z,231
2022-12-25T04:39:29.328Z,232
2022-12-25T04:40:01.563Z,232
2022-12-25T04:40:33.379Z,232
2022-12-25T04:41:05.395Z,232
2022-12-25T04:41:37.250Z,228
2022-12-25T04:42:09.253Z,230
2022-12-25T04:42:41.252Z,228
2022-12-25T04:43:13.295Z,230
2022-12-25T04:43:45.168Z,227
2022-12-25T04:44:17.203Z,230
2022-12-25T04:44:49.251Z,229
2022-12-25T04:45:21.365Z,228
2022-12-25T04:45:53.118Z,215
2022-12-25T04:46:25.192Z,228
2022-12-25T04:46:57.279Z,226
2022-12-25T04:47:28.973Z,224
2022-12-25T04:48:01.026Z,230
2022-12-25T04:48:33.000Z,223
2022-12-25T04:49:05.076Z,228
2022-12-25T04:49:36.849Z,226
2022-12-25T04:50:09.061Z,229
2022-12-25T04:50:40.947Z,232
2022-12-25T04:51:12.978Z,232
2022-12-25T04:51:44.814Z,232
2022-12-25T04:52:16.775Z,230
2022-12-25T04:52:48.805Z,230
2022-12-25T04:53:20.915Z,232
2022-12-25T04:53:52.701Z,232
2022-12-25T04:54:24.785Z,232
2022-12-25T04:54:56.791Z,232
2022-12-25T04:55:28.766Z,232
2022-12-25T04:56:00.612Z,232
2022-12-25T04:56:32.624Z,232
2022-12-25T04:57:04.710Z,232
2022-12-25T04:57:36.723Z,232
2022-12-25T04:58:08.511Z,239
2022-12-25T04:58:40.561Z,237
2022-12-25T04:59:12.623Z,237
2022-12-25T04:59:44.627Z,235
2022-12-25T05:00:16.704Z,235
2022-12-25T05:00:48.512Z,235
2022-12-25T05:01:20.565Z,235
2022-12-25T05:01:52.756Z,235
2022-12-25T05:02:24.660Z,235
2022-12-25T05:02:56.556Z,235
2022-12-25T05:03:28.567Z,233
2022-12-25T05:04:00.768Z,233
2022-12-25T05:04:32.331Z,233
2022-12-25T05:05:04.295Z,233
2022-12-25T05:05:36.362Z,233
2022-12-25T05:06:08.191Z,233
2022-12-25T05:06:40.259Z,233
2022-12-25T05:07:12.184Z,233
2022-12-25T05:07:44.268Z,233
2022-12-25T05:08:16.288Z,234
2022-12-25T05:08:48.081Z,234
2022-12-25T05:09:20.139Z,234
2022-12-25T05:09:52.190Z,234
2022-12-25T05:10:24.193Z,234
2022-12-25T05:10:56.007Z,234
2022-12-25T05:11:28.010Z,234
2022-12-25T05:12:00.119Z,235
2022-12-25T05:12:31.994Z,235
2022-12-25T05:13:04.066Z,236
2022-12-25T05:13:35.945Z,236
2022-12-25T05:14:07.978Z,236
2022-12-25T05:14:39.973Z,236
2022-12-25T05:15:12.005Z,236
2022-12-25T05:15:43.945Z,236
2022-12-25T05:16:15.975Z,236
2022-12-25T05:16:47.782Z,236
2022-12-25T05:17:19.864Z,236
2022-12-25T05:17:52.756Z,236
2022-12-25T05:18:24.060Z,236
2022-12-25T05:18:56.593Z,236
2022-12-25T05:19:27.626Z,236
2022-12-25T05:20:00.640Z,236
2022-12-25T05:20:38.018Z,236
2022-12-25T05:21:04.439Z,236
2022-12-25T05:21:35.622Z,238
2022-12-25T05:22:08.535Z,238
2022-12-25T05:22:44.648Z,242
2022-12-25T05:23:12.513Z,245
2022-12-25T05:23:43.523Z,242
2022-12-25T05:24:16.419Z,238
2022-12-25T05:24:47.745Z,237
2022-12-25T05:25:20.359Z,237
2022-12-25T05:25:51.446Z,237
2022-12-25T05:26:24.425Z,237
2022-12-25T05:26:55.898Z,237
2022-12-25T05:27:28.198Z,237
2022-12-25T05:27:59.302Z,237
2022-12-25T05:28:32.284Z,238
2022-12-25T05:29:03.400Z,239
2022-12-25T05:29:36.510Z,238
2022-12-25T05:30:07.573Z,239
2022-12-25T05:30:40.062Z,237
2022-12-25T05:31:11.477Z,237
2022-12-25T05:31:44.049Z,237
2022-12-25T05:32:15.269Z,237
2022-12-25T05:32:47.971Z,237
2022-12-25T05:33:19.187Z,237
2022-12-25T05:33:52.079Z,237
2022-12-25T05:34:23.072Z,237
2022-12-25T05:34:56.010Z,236
2022-12-25T05:35:27.135Z,236
2022-12-25T05:35:59.868Z,236
2022-12-25T05:36:30.967Z,236
2022-12-25T05:37:03.957Z,236
2022-12-25T05:37:35.099Z,236
2022-12-25T05:38:07.869Z,236
2022-12-25T05:38:38.884Z,233
2022-12-25T05:39:11.720Z,233
2022-12-25T05:39:42.907Z,233
2022-12-25T05:40:15.676Z,233
2022-12-25T05:40:46.795Z,233
2022-12-25T05:41:19.614Z,234
2022-12-25T05:41:50.714Z,234
2022-12-25T05:42:23.583Z,231
2022-12-25T05:42:54.744Z,234
2022-12-25T05:43:27.670Z,234
2022-12-25T05:43:58.582Z,236
2022-12-25T05:44:31.459Z,236
2022-12-25T05:45:02.809Z,236
2022-12-25T05:45:35.809Z,236
2022-12-25T05:46:06.694Z,236
2022-12-25T05:46:39.583Z,236
2022-12-25T05:47:10.676Z,236
2022-12-25T05:47:43.275Z,236
2022-12-25T05:48:14.459Z,236
2022-12-25T05:48:47.471Z,236
2022-12-25T05:49:18.516Z,236
2022-12-25T05:49:51.396Z,236
2022-12-25T05:50:22.399Z,236
2022-12-25T05:50:55.987Z,236
2022-12-25T05:51:26.420Z,236
2022-12-25T05:51:59.068Z,236
2022-12-25T05:52:30.260Z,236
2022-12-25T05:53:07.861Z,236
2022-12-25T05:53:34.356Z,236
2022-12-25T05:54:07.048Z,236
2022-12-25T05:54:38.187Z,236
2022-12-25T05:55:11.123Z,236
2022-12-25T05:55:42.475Z,236
2022-12-25T05:56:14.985Z,236
2022-12-25T05:56:46.137Z,234
2022-12-25T05:57:19.042Z,232
2022-12-25T05:57:50.181Z,233
2022-12-25T05:58:22.894Z,233
2022-12-25T05:58:54.065Z,233
2022-12-25T05:59:26.951Z,233
2022-12-25T05:59:58.075Z,233
2022-12-25T06:00:30.931Z,233
2022-12-25T06:01:01.925Z,233
2022-12-25T06:01:35.071Z,233
2022-12-25T06:02:06.119Z,233
2022-12-25T06:02:38.900Z,233
2022-12-25T06:03:10.016Z,233
2022-12-25T06:03:42.872Z,233
2022-12-25T06:04:14.017Z,233
2022-12-25T06:04:46.523Z,233
2022-12-25T06:05:17.739Z,232
2022-12-25T06:05:50.654Z,232
2022-12-25T06:06:21.861Z,233
2022-12-25T06:06:54.538Z,231
2022-12-25T06:07:25.718Z,232
2022-12-25T06:07:58.653Z,232
2022-12-25T06:08:29.714Z,232
2022-12-25T06:09:02.553Z,232
2022-12-25T06:09:33.574Z,232
2022-12-25T06:10:06.442Z,232
2022-12-25T06:10:37.659Z,233
2022-12-25T06:11:10.365Z,233
2022-12-25T06:11:41.507Z,233
2022-12-25T06:12:14.383Z,233
2022-12-25T06:12:45.595Z,233
2022-12-25T06:13:18.282Z,233
2022-12-25T06:13:49.437Z,233
2022-12-25T06:14:22.378Z,233
2022-12-25T06:14:53.486Z,233
2022-12-25T06:15:26.477Z,233
2022-12-25T06:15:57.587Z,233
2022-12-25T06:16:37.571Z,233
2022-12-25T06:17:01.540Z,233
2022-12-25T06:17:34.108Z,233
2022-12-25T06:18:05.274Z,233
2022-12-25T06:18:38.198Z,233
2022-12-25T06:19:09.348Z,233
2022-12-25T06:19:42.040Z,233
2022-12-25T06:20:13.209Z,233
2022-12-25T06:20:46.164Z,233
2022-12-25T06:21:16.979Z,233
2022-12-25T06:21:49.953Z,235
2022-12-25T06:22:21.121Z,236
2022-12-25T06:22:53.993Z,241
2022-12-25T06:23:25.043Z,236
2022-12-25T06:23:57.936Z,235
2022-12-25T06:24:28.922Z,235
2022-12-25T06:25:01.932Z,235
2022-12-25T06:25:32.816Z,236
2022-12-25T06:26:05.698Z,236
2022-12-25T06:26:37.883Z,236
2022-12-25T06:27:09.838Z,236
2022-12-25T06:27:40.757Z,236
2022-12-25T06:28:13.670Z,237
2022-12-25T06:28:44.815Z,234
2022-12-25T06:29:17.699Z,234
2022-12-25T06:29:48.688Z,234
2022-12-25T06:30:21.696Z,234
2022-12-25T06:30:52.774Z,234
2022-12-25T06:31:25.730Z,234
2022-12-25T06:31:56.667Z,234
2022-12-25T06:32:29.499Z,234
2022-12-25T06:33:00.649Z,234
2022-12-25T06:33:33.584Z,234
2022-12-25T06:34:04.538Z,234
2022-12-25T06:34:37.404Z,234
2022-12-25T06:35:08.596Z,234
2022-12-25T06:35:41.152Z,232
2022-12-25T06:36:12.436Z,232
2022-12-25T06:36:45.521Z,229
2022-12-25T06:37:16.517Z,226
2022-12-25T06:37:49.154Z,228
2022-12-25T06:38:20.376Z,227
2022-12-25T06:38:53.301Z,227
2022-12-25T06:39:24.448Z,229
2022-12-25T06:39:57.142Z,229
2022-12-25T06:40:28.291Z,233
2022-12-25T06:41:01.180Z,233
2022-12-25T06:41:32.232Z,233
2022-12-25T06:42:04.940Z,228
2022-12-25T06:42:36.168Z,228
2022-12-25T06:43:09.109Z,230
2022-12-25T06:43:40.179Z,230
2022-12-25T06:44:12.858Z,232
2022-12-25T06:44:44.110Z,232
2022-12-25T06:45:17.160Z,232
2022-12-25T06:45:48.235Z,232
2022-12-25T06:46:21.017Z,231
2022-12-25T06:46:52.033Z,229
2022-12-25T06:47:24.974Z,229
2022-12-25T06:47:56.059Z,230
2022-12-25T06:48:28.749Z,230
2022-12-25T06:48:59.967Z,230
2022-12-25T06:49:32.875Z,231
2022-12-25T06:50:04.003Z,230
2022-12-25T06:50:36.602Z,231
2022-12-25T06:51:07.927Z,231
2022-12-25T06:51:40.992Z,231
2022-12-25T06:52:11.852Z,224
2022-12-25T06:52:44.487Z,228
2022-12-25T06:53:15.739Z,228
2022-12-25T06:53:48.723Z,228
2022-12-25T06:54:19.824Z,228
2022-12-25T06:54:52.460Z,228
2022-12-25T06:55:23.691Z,225
2022-12-25T06:55:56.598Z,228
2022-12-25T06:56:27.713Z,225
2022-12-25T06:57:00.486Z,227
2022-12-25T06:57:31.590Z,228
2022-12-25T06:58:04.615Z,226
2022-12-25T06:58:35.662Z,224
2022-12-25T06:59:08.328Z,225
2022-12-25T06:59:39.500Z,228
2022-12-25T07:00:12.753Z,232
2022-12-25T07:00:43.578Z,231
2022-12-25T07:01:16.356Z,232
2022-12-25T07:01:47.550Z,230
2022-12-25T07:02:20.459Z,232
2022-12-25T07:02:51.668Z,232
2022-12-25T07:03:24.343Z,232
2022-12-25T07:03:55.298Z,232
2022-12-25T07:04:28.231Z,232
2022-12-25T07:04:59.362Z,231
2022-12-25T07:05:32.150Z,232
2022-12-25T07:06:03.241Z,232
2022-12-25T07:06:36.289Z,230
2022-12-25T07:07:09.195Z,229
2022-12-25T07:07:42.231Z,233
2022-12-25T07:08:11.155Z,232
2022-12-25T07:08:44.139Z,228
2022-12-25T07:09:15.017Z,229
2022-12-25T07:09:48.869Z,230
2022-12-25T07:10:24.112Z,229
2022-12-25T07:10:51.922Z,232
2022-12-25T07:11:22.997Z,233
2022-12-25T07:11:57.888Z,229
2022-12-25T07:12:27.281Z,230
2022-12-25T07:12:59.963Z,231
2022-12-25T07:13:46.575Z,233
2022-12-25T07:14:30.903Z,233
2022-12-25T07:15:03.369Z,230
2022-12-25T07:15:35.011Z,228
2022-12-25T07:16:06.883Z,231
2022-12-25T07:16:38.906Z,233
2022-12-25T07:17:10.887Z,232
2022-12-25T07:17:42.848Z,232
2022-12-25T07:18:14.717Z,232
2022-12-25T07:18:46.787Z,232
2022-12-25T07:19:18.801Z,232
2022-12-25T07:19:50.772Z,232
2022-12-25T07:20:22.635Z,230
2022-12-25T07:20:54.626Z,232
2022-12-25T07:21:26.718Z,229